sensor_id;sensor_type;location;lat;lon;timestamp;P1;durP1;ratioP1;P2;durP2;ratioP2
4377;SDS011;2203;53.686;9.994;2023-07-13T00:01:46;7.83;;;2.97;;
4377;SDS011;2203;53.686;9.994;2023-07-13T00:04:14;5.50;;;1.93;;
4377;SDS011;2203;53.686;9.994;2023-07-13T00:06:43;10.77;;;2.73;;
4377;SDS011;2203;53.686;9.994;2023-07-13T00:09:10;8.03;;;2.80;;
4377;SDS011;2203;53.686;9.994;2023-07-13T00:11:38;9.30;;;2.60;;
4377;SDS011;2203;53.686;9.994;2023-07-13T00:14:03;6.70;;;2.73;;
4377;SDS011;2203;53.686;9.994;2023-07-13T00:16:29;7.43;;;2.53;;
4377;SDS011;2203;53.686;9.994;2023-07-13T00:18:54;8.90;;;3.00;;
4377;SDS011;2203;53.686;9.994;2023-07-13T00:21:20;9.90;;;2.70;;
4377;SDS011;2203;53.686;9.994;2023-07-13T00:23:45;13.77;;;3.60;;
4377;SDS011;2203;53.686;9.994;2023-07-13T00:26:11;8.17;;;2.77;;
4377;SDS011;2203;53.686;9.994;2023-07-13T00:28:37;13.43;;;2.70;;
4377;SDS011;2203;53.686;9.994;2023-07-13T00:31:04;15.63;;;3.67;;
4377;SDS011;2203;53.686;9.994;2023-07-13T00:33:29;7.43;;;3.13;;
4377;SDS011;2203;53.686;9.994;2023-07-13T00:35:55;5.53;;;2.90;;
4377;SDS011;2203;53.686;9.994;2023-07-13T00:38:21;12.00;;;3.70;;
4377;SDS011;2203;53.686;9.994;2023-07-13T00:40:47;8.13;;;2.80;;
4377;SDS011;2203;53.686;9.994;2023-07-13T00:43:15;6.43;;;3.00;;
4377;SDS011;2203;53.686;9.994;2023-07-13T00:48:07;11.33;;;3.70;;
4377;SDS011;2203;53.686;9.994;2023-07-13T00:50:33;8.80;;;2.77;;
4377;SDS011;2203;53.686;9.994;2023-07-13T00:52:58;8.17;;;3.23;;
4377;SDS011;2203;53.686;9.994;2023-07-13T00:55:23;11.77;;;3.53;;
4377;SDS011;2203;53.686;9.994;2023-07-13T00:57:49;12.83;;;3.50;;
4377;SDS011;2203;53.686;9.994;2023-07-13T01:00:15;9.20;;;3.20;;
4377;SDS011;2203;53.686;9.994;2023-07-13T01:02:42;10.60;;;3.40;;
4377;SDS011;2203;53.686;9.994;2023-07-13T01:05:09;6.80;;;2.93;;
4377;SDS011;2203;53.686;9.994;2023-07-13T01:07:36;8.17;;;2.80;;
4377;SDS011;2203;53.686;9.994;2023-07-13T01:10:02;12.80;;;3.67;;
4377;SDS011;2203;53.686;9.994;2023-07-13T01:12:28;7.87;;;3.10;;
4377;SDS011;2203;53.686;9.994;2023-07-13T01:14:57;6.33;;;3.20;;
4377;SDS011;2203;53.686;9.994;2023-07-13T01:17:24;7.47;;;3.50;;
4377;SDS011;2203;53.686;9.994;2023-07-13T01:19:49;9.37;;;3.20;;
4377;SDS011;2203;53.686;9.994;2023-07-13T01:22:16;10.30;;;3.23;;
4377;SDS011;2203;53.686;9.994;2023-07-13T01:24:43;6.47;;;3.67;;
4377;SDS011;2203;53.686;9.994;2023-07-13T01:27:10;13.00;;;3.73;;
4377;SDS011;2203;53.686;9.994;2023-07-13T01:29:38;11.50;;;4.00;;
4377;SDS011;2203;53.686;9.994;2023-07-13T01:32:07;11.23;;;3.93;;
4377;SDS011;2203;53.686;9.994;2023-07-13T01:34:36;8.57;;;3.70;;
4377;SDS011;2203;53.686;9.994;2023-07-13T01:37:02;9.23;;;3.53;;
4377;SDS011;2203;53.686;9.994;2023-07-13T01:39:29;7.53;;;3.70;;
4377;SDS011;2203;53.686;9.994;2023-07-13T01:41:54;8.30;;;3.93;;
4377;SDS011;2203;53.686;9.994;2023-07-13T01:44:20;7.63;;;3.30;;
4377;SDS011;2203;53.686;9.994;2023-07-13T01:46:45;7.03;;;3.47;;
4377;SDS011;2203;53.686;9.994;2023-07-13T01:49:11;8.20;;;4.20;;
4377;SDS011;2203;53.686;9.994;2023-07-13T01:51:36;11.97;;;4.43;;
4377;SDS011;2203;53.686;9.994;2023-07-13T01:54:01;8.90;;;3.07;;
4377;SDS011;2203;53.686;9.994;2023-07-13T01:56:27;8.83;;;3.23;;
4377;SDS011;2203;53.686;9.994;2023-07-13T01:58:52;7.53;;;4.07;;
4377;SDS011;2203;53.686;9.994;2023-07-13T02:01:18;6.40;;;3.57;;
4377;SDS011;2203;53.686;9.994;2023-07-13T02:03:43;13.50;;;4.30;;
4377;SDS011;2203;53.686;9.994;2023-07-13T02:06:09;6.83;;;4.23;;
4377;SDS011;2203;53.686;9.994;2023-07-13T02:08:34;6.67;;;3.47;;
4377;SDS011;2203;53.686;9.994;2023-07-13T02:11:00;5.60;;;3.73;;
4377;SDS011;2203;53.686;9.994;2023-07-13T02:13:27;7.57;;;3.97;;
4377;SDS011;2203;53.686;9.994;2023-07-13T02:15:52;7.10;;;3.57;;
4377;SDS011;2203;53.686;9.994;2023-07-13T02:18:18;8.70;;;4.00;;
4377;SDS011;2203;53.686;9.994;2023-07-13T02:20:43;12.33;;;4.30;;
4377;SDS011;2203;53.686;9.994;2023-07-13T02:23:09;7.10;;;4.73;;
4377;SDS011;2203;53.686;9.994;2023-07-13T02:25:34;7.00;;;4.40;;
4377;SDS011;2203;53.686;9.994;2023-07-13T02:28:00;7.50;;;4.50;;
4377;SDS011;2203;53.686;9.994;2023-07-13T02:30:26;10.43;;;3.90;;
4377;SDS011;2203;53.686;9.994;2023-07-13T02:32:52;10.87;;;4.30;;
4377;SDS011;2203;53.686;9.994;2023-07-13T02:35:18;20.13;;;4.67;;
4377;SDS011;2203;53.686;9.994;2023-07-13T02:37:43;11.33;;;3.77;;
4377;SDS011;2203;53.686;9.994;2023-07-13T02:40:08;8.93;;;4.40;;
4377;SDS011;2203;53.686;9.994;2023-07-13T02:42:34;9.37;;;4.57;;
4377;SDS011;2203;53.686;9.994;2023-07-13T02:45:00;7.03;;;4.30;;
4377;SDS011;2203;53.686;9.994;2023-07-13T02:47:25;6.03;;;4.17;;
4377;SDS011;2203;53.686;9.994;2023-07-13T02:49:51;8.10;;;4.03;;
4377;SDS011;2203;53.686;9.994;2023-07-13T02:52:17;9.47;;;4.30;;
4377;SDS011;2203;53.686;9.994;2023-07-13T02:54:42;10.80;;;4.30;;
4377;SDS011;2203;53.686;9.994;2023-07-13T02:57:08;9.50;;;4.70;;
4377;SDS011;2203;53.686;9.994;2023-07-13T02:59:33;5.87;;;3.93;;
4377;SDS011;2203;53.686;9.994;2023-07-13T03:01:58;9.13;;;4.40;;
4377;SDS011;2203;53.686;9.994;2023-07-13T03:04:26;9.13;;;4.33;;
4377;SDS011;2203;53.686;9.994;2023-07-13T03:06:51;7.47;;;4.30;;
4377;SDS011;2203;53.686;9.994;2023-07-13T03:09:17;5.80;;;3.90;;
4377;SDS011;2203;53.686;9.994;2023-07-13T03:11:42;6.50;;;4.20;;
4377;SDS011;2203;53.686;9.994;2023-07-13T03:14:08;9.20;;;4.17;;
4377;SDS011;2203;53.686;9.994;2023-07-13T03:16:33;12.20;;;3.73;;
4377;SDS011;2203;53.686;9.994;2023-07-13T03:18:59;17.07;;;5.00;;
4377;SDS011;2203;53.686;9.994;2023-07-13T03:21:24;7.63;;;4.43;;
4377;SDS011;2203;53.686;9.994;2023-07-13T03:23:50;10.37;;;4.20;;
4377;SDS011;2203;53.686;9.994;2023-07-13T03:26:16;12.47;;;5.47;;
4377;SDS011;2203;53.686;9.994;2023-07-13T03:28:43;8.07;;;4.30;;
4377;SDS011;2203;53.686;9.994;2023-07-13T03:31:10;10.47;;;4.50;;
4377;SDS011;2203;53.686;9.994;2023-07-13T03:33:41;9.50;;;4.20;;
4377;SDS011;2203;53.686;9.994;2023-07-13T03:36:06;6.10;;;4.40;;
4377;SDS011;2203;53.686;9.994;2023-07-13T03:38:33;16.13;;;4.33;;
4377;SDS011;2203;53.686;9.994;2023-07-13T03:40:59;9.93;;;4.90;;
4377;SDS011;2203;53.686;9.994;2023-07-13T03:43:25;15.03;;;4.77;;
4377;SDS011;2203;53.686;9.994;2023-07-13T03:45:50;8.90;;;4.63;;
4377;SDS011;2203;53.686;9.994;2023-07-13T03:48:15;7.20;;;3.83;;
4377;SDS011;2203;53.686;9.994;2023-07-13T03:50:41;13.37;;;4.23;;
4377;SDS011;2203;53.686;9.994;2023-07-13T03:53:06;20.53;;;4.47;;
4377;SDS011;2203;53.686;9.994;2023-07-13T03:55:32;15.80;;;4.60;;
4377;SDS011;2203;53.686;9.994;2023-07-13T03:57:58;10.67;;;4.70;;
4377;SDS011;2203;53.686;9.994;2023-07-13T04:00:44;13.23;;;4.40;;
4377;SDS011;2203;53.686;9.994;2023-07-13T04:03:09;8.03;;;3.90;;
4377;SDS011;2203;53.686;9.994;2023-07-13T04:05:34;5.17;;;3.97;;
4377;SDS011;2203;53.686;9.994;2023-07-13T04:08:01;7.10;;;4.77;;
4377;SDS011;2203;53.686;9.994;2023-07-13T04:10:26;9.80;;;5.07;;
4377;SDS011;2203;53.686;9.994;2023-07-13T04:12:51;11.63;;;4.97;;
4377;SDS011;2203;53.686;9.994;2023-07-13T04:15:17;11.50;;;4.40;;
4377;SDS011;2203;53.686;9.994;2023-07-13T04:17:42;13.37;;;4.60;;
4377;SDS011;2203;53.686;9.994;2023-07-13T04:20:08;7.00;;;4.03;;
4377;SDS011;2203;53.686;9.994;2023-07-13T04:22:33;12.03;;;4.40;;
4377;SDS011;2203;53.686;9.994;2023-07-13T04:24:58;10.03;;;4.60;;
4377;SDS011;2203;53.686;9.994;2023-07-13T04:27:24;6.73;;;3.57;;
4377;SDS011;2203;53.686;9.994;2023-07-13T04:29:49;10.50;;;3.90;;
4377;SDS011;2203;53.686;9.994;2023-07-13T04:32:15;12.20;;;3.80;;
4377;SDS011;2203;53.686;9.994;2023-07-13T04:34:41;9.00;;;3.77;;
4377;SDS011;2203;53.686;9.994;2023-07-13T04:37:06;6.23;;;3.63;;
4377;SDS011;2203;53.686;9.994;2023-07-13T04:39:32;8.13;;;3.70;;
4377;SDS011;2203;53.686;9.994;2023-07-13T04:41:57;9.40;;;3.67;;
4377;SDS011;2203;53.686;9.994;2023-07-13T04:44:22;10.40;;;4.10;;
4377;SDS011;2203;53.686;9.994;2023-07-13T04:46:48;8.17;;;3.80;;
4377;SDS011;2203;53.686;9.994;2023-07-13T04:49:13;11.43;;;3.83;;
4377;SDS011;2203;53.686;9.994;2023-07-13T04:51:39;9.07;;;3.50;;
4377;SDS011;2203;53.686;9.994;2023-07-13T04:54:04;6.00;;;3.30;;
4377;SDS011;2203;53.686;9.994;2023-07-13T04:56:30;17.43;;;4.00;;
4377;SDS011;2203;53.686;9.994;2023-07-13T04:58:55;14.80;;;3.80;;
4377;SDS011;2203;53.686;9.994;2023-07-13T05:01:20;18.33;;;4.03;;
4377;SDS011;2203;53.686;9.994;2023-07-13T05:03:46;12.20;;;3.93;;
4377;SDS011;2203;53.686;9.994;2023-07-13T05:06:11;12.90;;;4.30;;
4377;SDS011;2203;53.686;9.994;2023-07-13T05:08:38;16.87;;;4.07;;
4377;SDS011;2203;53.686;9.994;2023-07-13T05:11:04;12.73;;;3.70;;
4377;SDS011;2203;53.686;9.994;2023-07-13T05:13:31;15.33;;;3.37;;
4377;SDS011;2203;53.686;9.994;2023-07-13T05:16:01;18.20;;;4.40;;
4377;SDS011;2203;53.686;9.994;2023-07-13T05:18:28;22.00;;;4.47;;
4377;SDS011;2203;53.686;9.994;2023-07-13T05:20:56;8.80;;;4.30;;
4377;SDS011;2203;53.686;9.994;2023-07-13T05:23:23;23.90;;;4.33;;
4377;SDS011;2203;53.686;9.994;2023-07-13T05:25:48;9.27;;;3.40;;
4377;SDS011;2203;53.686;9.994;2023-07-13T05:28:13;10.70;;;3.60;;
4377;SDS011;2203;53.686;9.994;2023-07-13T05:30:39;12.47;;;4.80;;
4377;SDS011;2203;53.686;9.994;2023-07-13T05:33:04;14.40;;;4.13;;
4377;SDS011;2203;53.686;9.994;2023-07-13T05:35:29;20.80;;;6.00;;
4377;SDS011;2203;53.686;9.994;2023-07-13T05:37:55;8.93;;;4.37;;
4377;SDS011;2203;53.686;9.994;2023-07-13T05:40:20;12.00;;;3.77;;
4377;SDS011;2203;53.686;9.994;2023-07-13T05:42:45;10.03;;;2.80;;
4377;SDS011;2203;53.686;9.994;2023-07-13T05:45:11;18.93;;;4.10;;
4377;SDS011;2203;53.686;9.994;2023-07-13T05:47:36;19.00;;;3.47;;
4377;SDS011;2203;53.686;9.994;2023-07-13T05:50:02;13.97;;;4.07;;
4377;SDS011;2203;53.686;9.994;2023-07-13T05:52:27;14.30;;;4.30;;
4377;SDS011;2203;53.686;9.994;2023-07-13T05:54:53;15.23;;;4.10;;
4377;SDS011;2203;53.686;9.994;2023-07-13T05:57:18;12.00;;;3.97;;
4377;SDS011;2203;53.686;9.994;2023-07-13T05:59:43;11.80;;;4.03;;
4377;SDS011;2203;53.686;9.994;2023-07-13T06:02:09;25.77;;;3.83;;
4377;SDS011;2203;53.686;9.994;2023-07-13T06:04:36;14.30;;;3.77;;
4377;SDS011;2203;53.686;9.994;2023-07-13T06:07:01;14.87;;;4.30;;
4377;SDS011;2203;53.686;9.994;2023-07-13T06:09:26;19.93;;;3.90;;
4377;SDS011;2203;53.686;9.994;2023-07-13T06:11:52;17.47;;;4.80;;
4377;SDS011;2203;53.686;9.994;2023-07-13T06:14:17;17.07;;;4.63;;
4377;SDS011;2203;53.686;9.994;2023-07-13T06:16:43;29.97;;;4.67;;
4377;SDS011;2203;53.686;9.994;2023-07-13T06:19:10;13.57;;;3.53;;
4377;SDS011;2203;53.686;9.994;2023-07-13T06:21:36;20.47;;;5.63;;
4377;SDS011;2203;53.686;9.994;2023-07-13T06:24:01;20.23;;;4.40;;
4377;SDS011;2203;53.686;9.994;2023-07-13T06:26:27;20.73;;;3.90;;
4377;SDS011;2203;53.686;9.994;2023-07-13T06:28:53;14.03;;;3.70;;
4377;SDS011;2203;53.686;9.994;2023-07-13T06:31:20;19.37;;;3.97;;
4377;SDS011;2203;53.686;9.994;2023-07-13T06:33:47;20.53;;;4.10;;
4377;SDS011;2203;53.686;9.994;2023-07-13T06:36:13;12.93;;;3.67;;
4377;SDS011;2203;53.686;9.994;2023-07-13T06:38:39;23.93;;;4.40;;
4377;SDS011;2203;53.686;9.994;2023-07-13T06:41:05;14.77;;;4.13;;
4377;SDS011;2203;53.686;9.994;2023-07-13T06:43:32;24.60;;;4.53;;
4377;SDS011;2203;53.686;9.994;2023-07-13T06:45:58;15.50;;;4.30;;
4377;SDS011;2203;53.686;9.994;2023-07-13T06:48:24;17.60;;;4.07;;
4377;SDS011;2203;53.686;9.994;2023-07-13T06:50:50;23.47;;;4.17;;
4377;SDS011;2203;53.686;9.994;2023-07-13T06:53:17;20.40;;;3.60;;
4377;SDS011;2203;53.686;9.994;2023-07-13T06:55:43;16.07;;;3.93;;
4377;SDS011;2203;53.686;9.994;2023-07-13T06:58:09;14.60;;;3.97;;
4377;SDS011;2203;53.686;9.994;2023-07-13T07:00:35;30.83;;;6.30;;
4377;SDS011;2203;53.686;9.994;2023-07-13T07:03:00;13.83;;;3.50;;
4377;SDS011;2203;53.686;9.994;2023-07-13T07:05:26;18.10;;;3.80;;
4377;SDS011;2203;53.686;9.994;2023-07-13T07:07:51;20.73;;;4.07;;
4377;SDS011;2203;53.686;9.994;2023-07-13T07:10:19;12.73;;;3.20;;
4377;SDS011;2203;53.686;9.994;2023-07-13T07:12:44;22.33;;;3.27;;
4377;SDS011;2203;53.686;9.994;2023-07-13T07:15:10;9.77;;;3.93;;
4377;SDS011;2203;53.686;9.994;2023-07-13T07:17:36;12.23;;;3.30;;
4377;SDS011;2203;53.686;9.994;2023-07-13T07:20:01;11.73;;;2.90;;
4377;SDS011;2203;53.686;9.994;2023-07-13T07:22:27;15.53;;;3.87;;
4377;SDS011;2203;53.686;9.994;2023-07-13T07:24:53;15.67;;;3.20;;
4377;SDS011;2203;53.686;9.994;2023-07-13T07:27:18;16.47;;;3.50;;
4377;SDS011;2203;53.686;9.994;2023-07-13T07:29:44;17.90;;;3.40;;
4377;SDS011;2203;53.686;9.994;2023-07-13T07:32:09;18.63;;;3.13;;
4377;SDS011;2203;53.686;9.994;2023-07-13T07:34:35;14.70;;;4.03;;
4377;SDS011;2203;53.686;9.994;2023-07-13T07:37:00;16.00;;;3.33;;
4377;SDS011;2203;53.686;9.994;2023-07-13T07:39:26;13.80;;;3.07;;
4377;SDS011;2203;53.686;9.994;2023-07-13T07:41:52;15.53;;;4.13;;
4377;SDS011;2203;53.686;9.994;2023-07-13T07:44:17;7.63;;;2.67;;
4377;SDS011;2203;53.686;9.994;2023-07-13T07:46:43;9.03;;;2.83;;
4377;SDS011;2203;53.686;9.994;2023-07-13T07:49:08;6.13;;;3.00;;
4377;SDS011;2203;53.686;9.994;2023-07-13T07:51:34;17.10;;;3.40;;
4377;SDS011;2203;53.686;9.994;2023-07-13T07:53:59;13.60;;;3.43;;
4377;SDS011;2203;53.686;9.994;2023-07-13T07:56:24;14.80;;;3.10;;
4377;SDS011;2203;53.686;9.994;2023-07-13T07:58:50;17.10;;;3.67;;
4377;SDS011;2203;53.686;9.994;2023-07-13T08:01:15;16.53;;;3.33;;
4377;SDS011;2203;53.686;9.994;2023-07-13T08:03:41;19.63;;;3.60;;
4377;SDS011;2203;53.686;9.994;2023-07-13T08:06:06;21.23;;;3.37;;
4377;SDS011;2203;53.686;9.994;2023-07-13T08:08:32;19.10;;;3.50;;
4377;SDS011;2203;53.686;9.994;2023-07-13T08:10:57;10.70;;;2.57;;
4377;SDS011;2203;53.686;9.994;2023-07-13T08:13:22;23.67;;;3.50;;
4377;SDS011;2203;53.686;9.994;2023-07-13T08:15:48;13.03;;;3.20;;
4377;SDS011;2203;53.686;9.994;2023-07-13T08:18:14;18.50;;;3.63;;
4377;SDS011;2203;53.686;9.994;2023-07-13T08:20:40;20.47;;;3.77;;
4377;SDS011;2203;53.686;9.994;2023-07-13T08:23:06;12.00;;;2.83;;
4377;SDS011;2203;53.686;9.994;2023-07-13T08:25:32;17.30;;;2.73;;
4377;SDS011;2203;53.686;9.994;2023-07-13T08:27:57;9.33;;;2.90;;
4377;SDS011;2203;53.686;9.994;2023-07-13T08:30:23;9.20;;;2.70;;
4377;SDS011;2203;53.686;9.994;2023-07-13T08:32:48;8.73;;;2.77;;
4377;SDS011;2203;53.686;9.994;2023-07-13T08:35:14;9.80;;;2.70;;
4377;SDS011;2203;53.686;9.994;2023-07-13T08:37:41;16.57;;;2.93;;
4377;SDS011;2203;53.686;9.994;2023-07-13T08:40:07;9.40;;;2.43;;
4377;SDS011;2203;53.686;9.994;2023-07-13T08:50:35;17.70;;;2.57;;
4377;SDS011;2203;53.686;9.994;2023-07-13T08:53:04;25.60;;;3.23;;
4377;SDS011;2203;53.686;9.994;2023-07-13T08:55:31;13.73;;;3.17;;
4377;SDS011;2203;53.686;9.994;2023-07-13T08:58:01;19.03;;;3.20;;
4377;SDS011;2203;53.686;9.994;2023-07-13T09:00:42;11.60;;;2.47;;
4377;SDS011;2203;53.686;9.994;2023-07-13T09:03:23;19.63;;;2.90;;
4377;SDS011;2203;53.686;9.994;2023-07-13T09:05:53;15.27;;;3.07;;
4377;SDS011;2203;53.686;9.994;2023-07-13T09:11:01;9.10;;;2.47;;
4377;SDS011;2203;53.686;9.994;2023-07-13T09:16:05;13.90;;;2.90;;
4377;SDS011;2203;53.686;9.994;2023-07-13T09:18:33;11.10;;;2.20;;
4377;SDS011;2203;53.686;9.994;2023-07-13T09:21:04;6.37;;;2.17;;
4377;SDS011;2203;53.686;9.994;2023-07-13T09:23:37;11.30;;;3.20;;
4377;SDS011;2203;53.686;9.994;2023-07-13T09:26:25;9.50;;;2.10;;
4377;SDS011;2203;53.686;9.994;2023-07-13T09:28:57;12.70;;;2.93;;
4377;SDS011;2203;53.686;9.994;2023-07-13T09:31:58;11.53;;;2.63;;
4377;SDS011;2203;53.686;9.994;2023-07-13T09:34:18;23.70;;;3.00;;
4377;SDS011;2203;53.686;9.994;2023-07-13T09:36:43;11.80;;;2.70;;
4377;SDS011;2203;53.686;9.994;2023-07-13T09:39:27;9.90;;;2.97;;
4377;SDS011;2203;53.686;9.994;2023-07-13T09:41:57;10.10;;;2.90;;
4377;SDS011;2203;53.686;9.994;2023-07-13T09:44:31;7.80;;;2.03;;
4377;SDS011;2203;53.686;9.994;2023-07-13T09:47:00;12.40;;;2.87;;
4377;SDS011;2203;53.686;9.994;2023-07-13T09:49:28;7.00;;;2.03;;
4377;SDS011;2203;53.686;9.994;2023-07-13T09:51:58;34.23;;;3.30;;
4377;SDS011;2203;53.686;9.994;2023-07-13T09:54:28;11.77;;;2.30;;
4377;SDS011;2203;53.686;9.994;2023-07-13T09:56:58;12.23;;;4.00;;
4377;SDS011;2203;53.686;9.994;2023-07-13T09:59:27;5.97;;;2.63;;
4377;SDS011;2203;53.686;9.994;2023-07-13T10:01:54;9.20;;;2.27;;
4377;SDS011;2203;53.686;9.994;2023-07-13T10:04:22;7.90;;;2.67;;
4377;SDS011;2203;53.686;9.994;2023-07-13T10:07:04;5.77;;;2.10;;
4377;SDS011;2203;53.686;9.994;2023-07-13T10:09:31;8.40;;;2.50;;
4377;SDS011;2203;53.686;9.994;2023-07-13T10:11:57;9.80;;;2.53;;
4377;SDS011;2203;53.686;9.994;2023-07-13T10:14:22;5.10;;;2.30;;
4377;SDS011;2203;53.686;9.994;2023-07-13T10:16:48;9.43;;;2.10;;
4377;SDS011;2203;53.686;9.994;2023-07-13T10:19:23;9.63;;;2.60;;
4377;SDS011;2203;53.686;9.994;2023-07-13T10:24:38;5.33;;;2.23;;
4377;SDS011;2203;53.686;9.994;2023-07-13T10:29:44;5.93;;;3.00;;
4377;SDS011;2203;53.686;9.994;2023-07-13T10:32:13;10.40;;;2.37;;
4377;SDS011;2203;53.686;9.994;2023-07-13T10:34:39;7.73;;;2.37;;
4377;SDS011;2203;53.686;9.994;2023-07-13T10:37:07;9.50;;;2.00;;
4377;SDS011;2203;53.686;9.994;2023-07-13T10:39:42;9.37;;;2.23;;
4377;SDS011;2203;53.686;9.994;2023-07-13T10:42:08;11.03;;;2.70;;
4377;SDS011;2203;53.686;9.994;2023-07-13T10:44:37;6.83;;;2.30;;
4377;SDS011;2203;53.686;9.994;2023-07-13T10:47:07;8.80;;;2.00;;
4377;SDS011;2203;53.686;9.994;2023-07-13T10:49:34;18.17;;;1.80;;
4377;SDS011;2203;53.686;9.994;2023-07-13T10:52:02;9.07;;;2.30;;
4377;SDS011;2203;53.686;9.994;2023-07-13T10:54:31;10.30;;;2.20;;
4377;SDS011;2203;53.686;9.994;2023-07-13T10:59:46;9.50;;;2.00;;
4377;SDS011;2203;53.686;9.994;2023-07-13T11:02:25;4.70;;;2.00;;
4377;SDS011;2203;53.686;9.994;2023-07-13T11:04:52;12.47;;;2.00;;
4377;SDS011;2203;53.686;9.994;2023-07-13T11:07:26;12.70;;;2.17;;
4377;SDS011;2203;53.686;9.994;2023-07-13T11:09:54;15.30;;;2.63;;
4377;SDS011;2203;53.686;9.994;2023-07-13T11:19:53;4.63;;;1.87;;
4377;SDS011;2203;53.686;9.994;2023-07-13T11:22:26;3.00;;;1.70;;
4377;SDS011;2203;53.686;9.994;2023-07-13T11:36:06;5.97;;;1.60;;
4377;SDS011;2203;53.686;9.994;2023-07-13T11:38:45;7.50;;;1.40;;
4377;SDS011;2203;53.686;9.994;2023-07-13T11:41:35;10.57;;;2.37;;
4377;SDS011;2203;53.686;9.994;2023-07-13T11:44:13;4.00;;;2.03;;
4377;SDS011;2203;53.686;9.994;2023-07-13T11:46:44;10.70;;;2.33;;
4377;SDS011;2203;53.686;9.994;2023-07-13T11:49:13;4.73;;;2.03;;
4377;SDS011;2203;53.686;9.994;2023-07-13T11:51:40;4.67;;;1.47;;
4377;SDS011;2203;53.686;9.994;2023-07-13T11:54:10;5.83;;;1.30;;
4377;SDS011;2203;53.686;9.994;2023-07-13T11:56:42;10.50;;;1.43;;
4377;SDS011;2203;53.686;9.994;2023-07-13T11:59:07;6.63;;;1.80;;
4377;SDS011;2203;53.686;9.994;2023-07-13T12:01:36;9.53;;;1.83;;
4377;SDS011;2203;53.686;9.994;2023-07-13T12:04:08;4.83;;;1.90;;
4377;SDS011;2203;53.686;9.994;2023-07-13T12:06:46;7.90;;;1.60;;
4377;SDS011;2203;53.686;9.994;2023-07-13T12:09:12;6.40;;;1.47;;
4377;SDS011;2203;53.686;9.994;2023-07-13T12:11:41;6.10;;;1.73;;
4377;SDS011;2203;53.686;9.994;2023-07-13T12:14:15;13.73;;;2.67;;
4377;SDS011;2203;53.686;9.994;2023-07-13T12:16:41;11.73;;;2.50;;
4377;SDS011;2203;53.686;9.994;2023-07-13T12:19:09;9.77;;;2.00;;
4377;SDS011;2203;53.686;9.994;2023-07-13T12:21:42;12.57;;;2.50;;
4377;SDS011;2203;53.686;9.994;2023-07-13T12:24:15;19.97;;;2.60;;
4377;SDS011;2203;53.686;9.994;2023-07-13T12:26:41;12.30;;;2.00;;
4377;SDS011;2203;53.686;9.994;2023-07-13T12:29:07;5.97;;;2.20;;
4377;SDS011;2203;53.686;9.994;2023-07-13T12:31:37;3.87;;;1.60;;
4377;SDS011;2203;53.686;9.994;2023-07-13T12:34:07;6.97;;;2.17;;
4377;SDS011;2203;53.686;9.994;2023-07-13T12:36:34;6.80;;;2.17;;
4377;SDS011;2203;53.686;9.994;2023-07-13T12:39:03;8.10;;;3.03;;
4377;SDS011;2203;53.686;9.994;2023-07-13T12:41:33;5.37;;;2.30;;
4377;SDS011;2203;53.686;9.994;2023-07-13T12:43:59;5.33;;;2.07;;
4377;SDS011;2203;53.686;9.994;2023-07-13T12:46:25;10.90;;;2.30;;
4377;SDS011;2203;53.686;9.994;2023-07-13T12:48:53;4.03;;;2.13;;
4377;SDS011;2203;53.686;9.994;2023-07-13T12:51:23;7.90;;;2.57;;
4377;SDS011;2203;53.686;9.994;2023-07-13T12:53:51;9.17;;;2.73;;
4377;SDS011;2203;53.686;9.994;2023-07-13T12:56:23;7.00;;;2.97;;
4377;SDS011;2203;53.686;9.994;2023-07-13T12:58:50;7.20;;;2.70;;
4377;SDS011;2203;53.686;9.994;2023-07-13T13:01:21;12.10;;;2.63;;
4377;SDS011;2203;53.686;9.994;2023-07-13T13:03:52;10.30;;;3.47;;
4377;SDS011;2203;53.686;9.994;2023-07-13T13:08:45;9.40;;;2.70;;
4377;SDS011;2203;53.686;9.994;2023-07-13T13:11:17;10.23;;;2.50;;
4377;SDS011;2203;53.686;9.994;2023-07-13T13:13:44;7.70;;;1.93;;
4377;SDS011;2203;53.686;9.994;2023-07-13T13:18:45;5.13;;;2.20;;
4377;SDS011;2203;53.686;9.994;2023-07-13T13:21:11;7.03;;;2.53;;
4377;SDS011;2203;53.686;9.994;2023-07-13T13:23:37;8.27;;;2.30;;
4377;SDS011;2203;53.686;9.994;2023-07-13T13:26:02;7.10;;;2.23;;
4377;SDS011;2203;53.686;9.994;2023-07-13T13:28:31;17.37;;;2.40;;
4377;SDS011;2203;53.686;9.994;2023-07-13T13:30:57;6.57;;;2.20;;
4377;SDS011;2203;53.686;9.994;2023-07-13T13:33:22;7.83;;;2.40;;
4377;SDS011;2203;53.686;9.994;2023-07-13T13:35:48;8.83;;;2.17;;
4377;SDS011;2203;53.686;9.994;2023-07-13T13:38:18;6.33;;;1.90;;
4377;SDS011;2203;53.686;9.994;2023-07-13T13:40:45;8.50;;;2.57;;
4377;SDS011;2203;53.686;9.994;2023-07-13T13:46:02;2.80;;;1.83;;
4377;SDS011;2203;53.686;9.994;2023-07-13T13:48:38;2.27;;;2.00;;
4377;SDS011;2203;53.686;9.994;2023-07-13T13:51:26;7.40;;;1.90;;
4377;SDS011;2203;53.686;9.994;2023-07-13T13:53:50;6.10;;;2.50;;
4377;SDS011;2203;53.686;9.994;2023-07-13T13:56:17;5.53;;;1.87;;
4377;SDS011;2203;53.686;9.994;2023-07-13T13:58:43;8.23;;;2.20;;
4377;SDS011;2203;53.686;9.994;2023-07-13T14:01:19;4.90;;;2.50;;
4377;SDS011;2203;53.686;9.994;2023-07-13T14:03:46;5.77;;;2.30;;
4377;SDS011;2203;53.686;9.994;2023-07-13T14:06:13;10.10;;;2.83;;
4377;SDS011;2203;53.686;9.994;2023-07-13T14:08:40;4.70;;;2.40;;
4377;SDS011;2203;53.686;9.994;2023-07-13T14:11:07;8.27;;;2.10;;
4377;SDS011;2203;53.686;9.994;2023-07-13T14:13:38;8.10;;;1.80;;
4377;SDS011;2203;53.686;9.994;2023-07-13T14:16:12;7.07;;;1.90;;
4377;SDS011;2203;53.686;9.994;2023-07-13T14:18:46;2.27;;;1.90;;
4377;SDS011;2203;53.686;9.994;2023-07-13T14:21:15;8.07;;;2.20;;
4377;SDS011;2203;53.686;9.994;2023-07-13T14:23:43;7.30;;;2.53;;
4377;SDS011;2203;53.686;9.994;2023-07-13T14:26:10;4.07;;;1.87;;
4377;SDS011;2203;53.686;9.994;2023-07-13T14:28:37;4.73;;;2.13;;
4377;SDS011;2203;53.686;9.994;2023-07-13T14:31:04;7.83;;;2.83;;
4377;SDS011;2203;53.686;9.994;2023-07-13T14:33:30;6.73;;;2.07;;
4377;SDS011;2203;53.686;9.994;2023-07-13T14:35:55;4.40;;;2.30;;
4377;SDS011;2203;53.686;9.994;2023-07-13T14:38:21;7.90;;;3.90;;
4377;SDS011;2203;53.686;9.994;2023-07-13T14:40:46;4.70;;;2.37;;
4377;SDS011;2203;53.686;9.994;2023-07-13T14:43:15;14.20;;;2.63;;
4377;SDS011;2203;53.686;9.994;2023-07-13T14:45:47;9.00;;;2.33;;
4377;SDS011;2203;53.686;9.994;2023-07-13T14:48:21;6.17;;;2.10;;
4377;SDS011;2203;53.686;9.994;2023-07-13T14:50:50;9.00;;;2.43;;
4377;SDS011;2203;53.686;9.994;2023-07-13T14:53:19;9.63;;;2.47;;
4377;SDS011;2203;53.686;9.994;2023-07-13T14:55:44;7.07;;;2.80;;
4377;SDS011;2203;53.686;9.994;2023-07-13T14:58:10;7.33;;;2.33;;
4377;SDS011;2203;53.686;9.994;2023-07-13T15:00:35;5.53;;;2.33;;
4377;SDS011;2203;53.686;9.994;2023-07-13T15:03:02;4.93;;;2.47;;
4377;SDS011;2203;53.686;9.994;2023-07-13T15:05:29;6.53;;;2.30;;
4377;SDS011;2203;53.686;9.994;2023-07-13T15:07:59;6.77;;;3.10;;
4377;SDS011;2203;53.686;9.994;2023-07-13T15:10:30;3.37;;;2.30;;
4377;SDS011;2203;53.686;9.994;2023-07-13T15:13:00;9.17;;;1.70;;
4377;SDS011;2203;53.686;9.994;2023-07-13T15:15:37;7.57;;;2.40;;
4377;SDS011;2203;53.686;9.994;2023-07-13T15:18:04;4.20;;;2.00;;
4377;SDS011;2203;53.686;9.994;2023-07-13T15:20:31;7.97;;;1.90;;
4377;SDS011;2203;53.686;9.994;2023-07-13T15:22:59;6.10;;;2.13;;
4377;SDS011;2203;53.686;9.994;2023-07-13T15:25:25;6.57;;;2.10;;
4377;SDS011;2203;53.686;9.994;2023-07-13T15:27:53;10.40;;;2.63;;
4377;SDS011;2203;53.686;9.994;2023-07-13T15:30:20;2.97;;;1.63;;
4377;SDS011;2203;53.686;9.994;2023-07-13T15:32:46;7.83;;;2.57;;
4377;SDS011;2203;53.686;9.994;2023-07-13T15:35:16;3.10;;;1.40;;
4377;SDS011;2203;53.686;9.994;2023-07-13T15:37:50;7.97;;;2.00;;
4377;SDS011;2203;53.686;9.994;2023-07-13T15:40:16;3.10;;;1.67;;
4377;SDS011;2203;53.686;9.994;2023-07-13T15:42:42;3.80;;;1.40;;
4377;SDS011;2203;53.686;9.994;2023-07-13T15:45:18;6.83;;;1.67;;
4377;SDS011;2203;53.686;9.994;2023-07-13T15:47:49;6.33;;;1.80;;
4377;SDS011;2203;53.686;9.994;2023-07-13T15:50:16;7.80;;;1.20;;
4377;SDS011;2203;53.686;9.994;2023-07-13T15:52:44;5.90;;;1.50;;
4377;SDS011;2203;53.686;9.994;2023-07-13T15:55:11;6.30;;;2.27;;
4377;SDS011;2203;53.686;9.994;2023-07-13T15:57:38;4.87;;;1.57;;
4377;SDS011;2203;53.686;9.994;2023-07-13T16:00:12;8.70;;;1.77;;
4377;SDS011;2203;53.686;9.994;2023-07-13T16:02:48;5.53;;;1.60;;